Time;durP1;ratioP1;P1;durP2;ratioP2;P2;SDS_P1;SDS_P2;PMS_P1;PMS_P2;Temp;Humidity;BMP_temperature;BMP_pressure;BME280_temperature;BME280_humidity;BME280_pressure;Samples;Min_cycle;Max_cycle;Signal;HPM_P1;HPM_P2
2024/04/01 00:07:41;;;;;;;33.3;11.7;;;;;;;16.17;53.63;97341.666666667;;;;
2024/04/01 00:18:40;;;;;;;27;11.6;;;;;;;15.73;55.41;97346.666666667;;;;
2024/04/01 00:28:40;;;;;;;27;11.6;;;;;;;15.4;55.23;97351.666666667;;;;
2024/04/01 00:39:39;;;;;;;27;11.6;;;;;;;14.91;55.41;97346.666666667;;;;
2024/04/01 00:50:39;;;;;;;29.9;12.3;;;;;;;14.49;56.97;97326.666666667;;;;
2024/04/01 01:00:39;;;;;;;29.9;12.3;;;;;;;13.98;58.68;97328.333333333;;;;
2024/04/01 01:10:40;;;;;;;29.9;12.3;;;;;;;13.72;59.84;97341.666666667;;;;
2024/04/01 01:20:39;;;;;;;27.3;10.8;;;;;;;13.51;60.19;97338.333333333;;;;
2024/04/01 01:31:39;;;;;;;27.3;10.8;;;;;;;13.05;62.85;97345;;;;
2024/04/01 01:41:39;;;;;;;27.3;10.8;;;;;;;13.02;62.48;97341.666666667;;;;
2024/04/01 01:52:39;;;;;;;25.2;9.7;;;;;;;12.89;62.58;97345;;;;
2024/04/01 02:02:40;;;;;;;25.2;9.7;;;;;;;12.63;63.57;97343.333333333;;;;
2024/04/01 02:12:39;;;;;;;25.2;9.7;;;;;;;12.3;64.03;97345;;;;
2024/04/01 02:22:40;;;;;;;19.9;8.1;;;;;;;12.21;65.29;97345;;;;
2024/04/01 02:33:39;;;;;;;19.9;8.1;;;;;;;12.36;65.3;97343.333333333;;;;
2024/04/01 02:43:39;;;;;;;19.9;8.1;;;;;;;12.17;66.14;97336.666666667;;;;
2024/04/01 02:53:47;;;;;;;26.7;10.1;;;;;;;12.02;66.78;97345;;;;
2024/04/01 03:04:40;;;;;;;26.7;10.1;;;;;;;11.93;67.05;97320;;;;
2024/04/01 03:14:40;;;;;;;26.7;10.1;;;;;;;11.99;66.23;97300;;;;
2024/04/01 03:24:40;;;;;;;21.8;8;;;;;;;12.17;66.23;97286.666666667;;;;
2024/04/01 03:34:39;;;;;;;21.8;8;;;;;;;12.42;65.52;97295;;;;
2024/04/01 03:45:40;;;;;;;21.8;8;;;;;;;12.63;64.98;97296.666666667;;;;
2024/04/01 03:56:40;;;;;;;30;9.7;;;;;;;12.76;64.7;97315;;;;
2024/04/01 04:07:41;;;;;;;30;9.7;;;;;;;12.96;64.19;97300;;;;
2024/04/01 04:18:39;;;;;;;21.8;8.6;;;;;;;13.05;64.13;97316.666666667;;;;
2024/04/01 04:28:39;;;;;;;21.8;8.6;;;;;;;13.06;64.16;97325;;;;
2024/04/01 04:39:39;;;;;;;21.8;8.6;;;;;;;13.16;64.88;97315;;;;
2024/04/01 04:49:39;;;;;;;27.4;11.4;;;;;;;13.14;64.48;97301.666666667;;;;
2024/04/01 04:59:40;;;;;;;27.4;11.4;;;;;;;13.02;65.63;97283.333333333;;;;
2024/04/01 05:10:41;;;;;;;27.4;11.4;;;;;;;12.78;67.87;97260;;;;
2024/04/01 05:21:39;;;;;;;29.2;12.5;;;;;;;13.6;66.75;97258.333333333;;;;
2024/04/01 05:32:39;;;;;;;29.2;12.5;;;;;;;14.66;64.74;97245;;;;
2024/04/01 05:42:40;;;;;;;29.2;12.5;;;;;;;15.7;62.6;97211.666666667;;;;
2024/04/01 05:52:40;;;;;;;39.4;16.4;;;;;;;16.74;59.47;97195;;;;
2024/04/01 06:03:40;;;;;;;39.4;16.4;;;;;;;17.72;57.98;97183.333333333;;;;
2024/04/01 06:13:40;;;;;;;39.4;16.4;;;;;;;18.17;55.4;97195;;;;
2024/04/01 06:24:39;;;;;;;46.9;15.6;;;;;;;18.66;55.15;97203.333333333;;;;
2024/04/01 06:34:40;;;;;;;46.9;15.6;;;;;;;18.84;54.47;97225;;;;
2024/04/01 06:44:40;;;;;;;46.9;15.6;;;;;;;19.1;53.93;97231.666666667;;;;
2024/04/01 06:55:39;;;;;;;42.1;17.6;;;;;;;19.31;53.64;97213.333333333;;;;
2024/04/01 07:05:40;;;;;;;42.1;17.6;;;;;;;19.44;54.11;97195;;;;
2024/04/01 07:16:40;;;;;;;42.1;17.6;;;;;;;19.83;52.86;97163.333333333;;;;
2024/04/01 07:27:40;;;;;;;44.8;14.9;;;;;;;20.62;49.49;97150;;;;
2024/04/01 07:38:40;;;;;;;44.8;14.9;;;;;;;21.46;46.62;97165;;;;
2024/04/01 07:48:39;;;;;;;36.4;13.8;;;;;;;22.03;45.81;97183.333333333;;;;
2024/04/01 07:58:40;;;;;;;36.4;13.8;;;;;;;22.38;45.17;97176.666666667;;;;
2024/04/01 08:08:40;;;;;;;36.4;13.8;;;;;;;22.78;46.09;97171.666666667;;;;
2024/04/01 08:19:40;;;;;;;39.7;14.4;;;;;;;23.71;43.49;97180;;;;
2024/04/01 08:30:40;;;;;;;39.7;14.4;;;;;;;23.63;42.9;97138.333333333;;;;
2024/04/01 08:40:40;;;;;;;39.7;14.4;;;;;;;23.4;41.79;97105;;;;
2024/04/01 08:50:40;;;;;;;46.4;16.5;;;;;;;23.35;40.97;97111.666666667;;;;
2024/04/01 09:01:40;;;;;;;46.4;16.5;;;;;;;23.73;41.98;97086.666666667;;;;
2024/04/01 09:11:40;;;;;;;46.4;16.5;;;;;;;23.8;40.63;97075;;;;
2024/04/01 09:22:40;;;;;;;57.2;18.2;;;;;;;23.94;41.59;97075;;;;
2024/04/01 09:32:40;;;;;;;57.2;18.2;;;;;;;24.35;40.76;97070;;;;
2024/04/01 09:42:40;;;;;;;57.2;18.2;;;;;;;24.59;39.9;97053.333333333;;;;
2024/04/01 09:53:40;;;;;;;44.4;16.8;;;;;;;23.97;40.37;97041.666666667;;;;
2024/04/01 10:03:40;;;;;;;44.4;16.8;;;;;;;24.11;41.69;97031.666666667;;;;
2024/04/01 10:14:40;;;;;;;44.4;16.8;;;;;;;24.01;39.37;97035;;;;
2024/04/01 10:24:40;;;;;;;45.7;14.5;;;;;;;24.35;40.14;97026.666666667;;;;
2024/04/01 10:35:40;;;;;;;45.7;14.5;;;;;;;24.47;37.92;97005;;;;
2024/04/01 11:06:23;;;;;;;36.9;12.1;;;;;;;24.8;42.11;96980;;;;
2024/04/01 11:16:23;;;;;;;36.9;12.1;;;;;;;25.56;37.51;96965;;;;
2024/04/01 11:27:23;;;;;;;34.9;14.2;;;;;;;25.97;38.33;96946.666666667;;;;
2024/04/01 11:37:23;;;;;;;34.9;14.2;;;;;;;26.24;35.35;96931.666666667;;;;
2024/04/01 11:48:23;;;;;;;34.9;14.2;;;;;;;26.67;34.83;96926.666666667;;;;
2024/04/01 11:58:23;;;;;;;32.2;11.7;;;;;;;26.77;35.44;96931.666666667;;;;
2024/04/01 12:09:23;;;;;;;32.2;11.7;;;;;;;27.06;37.69;96938.333333333;;;;
2024/04/01 12:19:23;;;;;;;33.6;12.2;;;;;;;26.61;34.02;96931.666666667;;;;
2024/04/01 12:29:23;;;;;;;33.6;12.2;;;;;;;26.81;35.34;96911.666666667;;;;
2024/04/01 12:39:23;;;;;;;33.6;12.2;;;;;;;26.53;33.41;96928.333333333;;;;
2024/04/01 12:50:23;;;;;;;28.4;11;;;;;;;26.64;34.03;96913.333333333;;;;
2024/04/01 13:00:23;;;;;;;28.4;11;;;;;;;26.42;32.36;96911.666666667;;;;
2024/04/01 13:11:23;;;;;;;28.4;11;;;;;;;26.17;30.19;96913.333333333;;;;
2024/04/01 13:21:23;;;;;;;34;12;;;;;;;26.23;30.51;96901.666666667;;;;
2024/04/01 13:31:23;;;;;;;34;12;;;;;;;26.43;31.99;96903.333333333;;;;
2024/04/01 13:42:23;;;;;;;34;12;;;;;;;26.61;30.98;96891.666666667;;;;
2024/04/01 13:52:23;;;;;;;30.9;11.9;;;;;;;26.47;29.81;96891.666666667;;;;
2024/04/01 14:02:23;;;;;;;30.9;11.9;;;;;;;26.31;30.2;96880;;;;
2024/04/01 14:12:23;;;;;;;30.9;11.9;;;;;;;25.83;29.17;96866.666666667;;;;
2024/04/01 14:23:23;;;;;;;37.1;13.5;;;;;;;25.65;31.74;96855;;;;
2024/04/01 14:34:23;;;;;;;37.1;13.5;;;;;;;25.19;32.09;96841.666666667;;;;
2024/04/01 14:45:28;;;;;;;37.1;13.5;;;;;;;24.94;32.53;96831.666666667;;;;
2024/04/01 14:56:23;;;;;;;45.8;16.3;;;;;;;24.94;33.05;96840;;;;
2024/04/01 15:07:23;;;;;;;45.8;16.3;;;;;;;25.16;31.83;96850;;;;
2024/04/01 15:17:24;;;;;;;45.8;16.3;;;;;;;25.31;32.32;96836.666666667;;;;
2024/04/01 15:28:23;;;;;;;45.4;14.8;;;;;;;25.38;31.8;96830;;;;
2024/04/01 15:38:23;;;;;;;45.4;14.8;;;;;;;25.17;32.54;96843.333333333;;;;
2024/04/01 15:49:23;;;;;;;45.4;14.8;;;;;;;24.89;31.88;96868.333333333;;;;
2024/04/01 15:59:23;;;;;;;53.3;15.8;;;;;;;24.76;31.09;96866.666666667;;;;
2024/04/01 16:10:23;;;;;;;53.3;15.8;;;;;;;24.43;33.55;96868.333333333;;;;
2024/04/01 16:20:23;;;;;;;42.4;15.6;;;;;;;24.01;34.83;96866.666666667;;;;
2024/04/01 16:30:23;;;;;;;42.4;15.6;;;;;;;23.65;33.55;96871.666666667;;;;
2024/04/01 16:40:23;;;;;;;42.4;15.6;;;;;;;23.37;34.96;96878.333333333;;;;
2024/04/01 16:51:23;;;;;;;42.9;17;;;;;;;22.79;36.43;96876.666666667;;;;
2024/04/01 17:02:23;;;;;;;42.9;17;;;;;;;22.44;38.03;96885;;;;
2024/04/01 17:12:23;;;;;;;42.9;17;;;;;;;22.36;37.09;96891.666666667;;;;
2024/04/01 17:23:23;;;;;;;56.1;19.1;;;;;;;22.23;37.71;96906.666666667;;;;
2024/04/01 17:33:23;;;;;;;56.1;19.1;;;;;;;22.01;38.38;96911.666666667;;;;
2024/04/01 17:43:24;;;;;;;56.1;19.1;;;;;;;21.89;38.39;96925;;;;
2024/04/01 17:53:23;;;;;;;56.8;18.7;;;;;;;22.01;38.25;96913.333333333;;;;
2024/04/01 18:03:25;;;;;;;56.8;18.7;;;;;;;21.81;38.73;96901.666666667;;;;
2024/04/01 18:14:23;;;;;;;56.8;18.7;;;;;;;21.31;39.39;96896.666666667;;;;
2024/04/01 18:25:23;;;;;;;48.7;19.1;;;;;;;20.76;40.46;96883.333333333;;;;
2024/04/01 18:36:24;;;;;;;48.7;19.1;;;;;;;20.11;41.64;96886.666666667;;;;
2024/04/01 18:47:23;;;;;;;48.7;19.1;;;;;;;19.52;43.59;96873.333333333;;;;
2024/04/01 18:57:23;;;;;;;48.2;21;;;;;;;19.19;44.98;96868.333333333;;;;
2024/04/01 19:08:23;;;;;;;48.2;21;;;;;;;18.73;45.87;96865;;;;
2024/04/01 19:18:23;;;;;;;48.2;21;;;;;;;18.41;47.54;96856.666666667;;;;
2024/04/01 19:28:23;;;;;;;58.2;23.4;;;;;;;18.11;47.55;96846.666666667;;;;
2024/04/01 19:39:23;;;;;;;58.2;23.4;;;;;;;18.09;48.54;96846.666666667;;;;
2024/04/01 19:49:23;;;;;;;58.2;23.4;;;;;;;17.95;48.11;96836.666666667;;;;
2024/04/01 19:59:23;;;;;;;53.5;21.2;;;;;;;17.81;49.05;96833.333333333;;;;
2024/04/01 20:10:23;;;;;;;53.5;21.2;;;;;;;17.57;48.71;96818.333333333;;;;
2024/04/01 20:20:23;;;;;;;49.5;19.7;;;;;;;17.28;51.21;96818.333333333;;;;
2024/04/01 20:30:23;;;;;;;49.5;19.7;;;;;;;17.28;51.05;96793.333333333;;;;
2024/04/01 20:41:23;;;;;;;49.5;19.7;;;;;;;17.14;51.6;96770;;;;
2024/04/01 20:51:23;;;;;;;51;21.7;;;;;;;17.2;52.88;96750;;;;
2024/04/01 21:01:23;;;;;;;51;21.7;;;;;;;17.13;52.4;96726.666666667;;;;
2024/04/01 21:12:23;;;;;;;51;21.7;;;;;;;16.88;53.8;96715;;;;
2024/04/01 21:22:23;;;;;;;45.6;20.4;;;;;;;17.3;53.86;96720;;;;
2024/04/01 21:33:23;;;;;;;45.6;20.4;;;;;;;17.31;54.43;96730;;;;
2024/04/01 21:43:23;;;;;;;45.6;20.4;;;;;;;17.14;54.31;96805;;;;
2024/04/01 21:54:23;;;;;;;44.4;19.5;;;;;;;17.02;58.44;96823.333333333;;;;
2024/04/01 22:04:25;;;;;;;44.4;19.5;;;;;;;16.92;59.9;96836.666666667;;;;
2024/04/01 22:14:27;;;;;;;44.4;19.5;;;;;;;16.5;60.93;96856.666666667;;;;
2024/04/01 22:24:23;;;;;;;24.3;8.9;;;;;;;16.18;62.58;96873.333333333;;;;
2024/04/01 22:35:23;;;;;;;24.3;8.9;;;;;;;15.76;63.58;96908.333333333;;;;
2024/04/01 22:46:23;;;;;;;24.3;8.9;;;;;;;15.5;64.36;96923.333333333;;;;
2024/04/01 22:56:23;;;;;;;9.6;2.9;;;;;;;15.18;65.9;96921.666666667;;;;
2024/04/01 23:07:23;;;;;;;9.6;2.9;;;;;;;14.92;67.07;96916.666666667;;;;
2024/04/01 23:18:23;;;;;;;9.6;2.9;;;;;;;14.71;67.67;96878;;;;
2024/04/01 23:28:23;;;;;;;5.5;2.4;;;;;;;14.5;68.43;;;;;
2024/04/01 23:38:23;;;;;;;5.5;2.4;;;;;;;14.34;68.81;;;;;
2024/04/01 23:49:23;;;;;;;5.5;2.4;;;;;;;14.23;69.38;96910;;;;
2024/04/01 23:59:23;;;;;;;7.4;2;;;;;;;14.05;69.75;96930;;;;
